• Join FlightAware (Why Join?)
  • Login
  • US Flag 
10:42AM EDT


 

Airport Tracker/Info


-or-


 

Live Flight TrackerFlight Track Log ✈ EJA831 ✈ 20-Mar-2014 ✈ KHOU - MGGT / GUA

Flight Track Log - Related Links

Times and Time Zones

All times are in EDT time to prevent confusion due to time zone crossing. See the EJA831 flight status page for this flight to view local times or setup timezone preferences in your user account.

Time Position Orientation Groundspeed Altitude Reporting Facility
EDT Latitude Longitude Course Direction KTS MPH feet Rate Location/Type
01:29PM 29.6308 -95.2633 138° Southeast 190 219 800  Level Houston Center
01:30PM 29.5706 -95.2008 138° Southeast 261 300 4,600 2,400 Climbing Houston Center
01:31PM 29.5517 -95.1772 133° Southeast 259 298 4,900 600 Climbing Houston Center
01:32PM 29.4975 -95.1169 136° Southeast 273 314 5,500 1,860 Climbing Houston Center
01:33PM 29.4394 -95.0539 137° Southeast 283 326 8,800 3,300 Climbing Houston Center
01:34PM 29.3622 -94.9689 136° Southeast 319 367 12,400 3,180 Climbing Houston Center
01:35PM 29.2944 -94.8950 136° Southeast 334 384 15,400 2,760 Climbing Houston Center
01:36PM 29.2181 -94.8325 144° Southeast 335 386 18,200 2,760 Climbing Houston Center
01:37PM 29.1322 -94.7972 160° South 333 383 21,200 2,880 Climbing Houston Center
01:38PM 29.0461 -94.7619 160° South 332 382 24,200 2,520 Climbing Houston Center
01:39PM 28.9606 -94.7278 161° South 326 375 26,500 2,220 Climbing Houston Center
01:40PM 28.8522 -94.6842 161° South 339 390 28,900 2,100 Climbing Houston Center
01:41PM 28.7608 -94.6472 160° South 342 394 30,900 1,680 Climbing Houston Center
01:42PM 28.6669 -94.6100 161° South 352 405 32,400 1,440 Climbing Houston Center
01:43PM 28.5703 -94.5700 160° South 363 418 33,900 1,440 Climbing Houston Center
01:44PM 28.4714 -94.5300 160° South 372 428 35,400 1,620 Climbing Houston Center
01:45PM 28.3525 -94.4825 161° South 373 429 37,300 1,620 Climbing Houston Center
01:46PM 28.2581 -94.4428 160° South 369 425 38,800 1,380 Climbing Houston Center
01:47PM 28.1653 -94.4067 161° South 356 410 40,200 900 Climbing Houston Center
01:48PM 28.0725 -94.3700 161° South 355 409 40,700 360 Climbing Houston Center
01:49PM 27.9764 -94.3322 161° South 361 415 41,000 120 Climbing Houston Center
01:50PM 27.8761 -94.2917 160° South 377 434 41,000  Level Houston Center
01:51PM 27.7522 -94.2419 160° South 389 448 41,000  Level Houston Center
01:53PM 27.6478 -94.2008 161° South 393 452 41,000  Level Houston Center
01:54PM 27.5436 -94.1592 160° South 395 455 41,000  Level Houston Center
01:55PM 27.4386 -94.1186 161° South 396 456 41,000  Level Houston Center
01:56PM 27.3331 -94.0772 161° South 397 457 41,000  Level Houston Center
01:57PM 27.2075 -94.0269 160° South 398 458 41,000  Level Houston Center
01:58PM 27.1019 -93.9864 161° South 398 458 41,000  Level Houston Center
01:59PM 26.9958 -93.9447 161° South 400 460 41,000  Level Houston Center
02:00PM 26.8908 -93.9036 161° South 400 460 41,000  Level Houston Center
02:01PM 26.7842 -93.8628 161° South 402 463 41,000  Level Houston Center
02:02PM 26.6578 -93.8153 161° South 402 463 41,000  Level Houston Center
02:03PM 26.5528 -93.7733 160° South 402 463 41,000  Level Houston Center
02:04PM 26.4497 -93.7231 156° South 402 463 41,000  Level Houston Center
02:05PM 26.3478 -93.6606 151° Southeast 404 465 41,000  Level Houston Center
02:06PM 26.2453 -93.5953 150° Southeast 411 473 41,000  Level Houston Center
02:07PM 26.1222 -93.5183 151° Southeast 414 476 41,000  Level Houston Center
02:09PM 25.9928 -93.4365 150° Southeast  Level FlightAware Approximate
02:16PM 25.3814 -93.0529 150° Southeast  Level FlightAware Approximate
02:17PM 25.2925 -93.0014 153° Southeast  Level FlightAware Approximate
02:18PM 25.2029 -92.9516 153° Southeast  Level FlightAware Approximate
02:19PM 25.1146 -92.8989 152° Southeast  Level FlightAware Approximate
02:20PM 25.0264 -92.8461 152° Southeast  Level FlightAware Approximate
02:21PM 24.9381 -92.7935 152° Southeast  Level FlightAware Approximate
02:22PM 24.8498 -92.7409 152° Southeast  Level FlightAware Approximate
02:23PM 24.7615 -92.6884 152° Southeast  Level FlightAware Approximate
02:24PM 24.6732 -92.6359 152° Southeast  Level FlightAware Approximate
02:25PM 24.5849 -92.5836 152° Southeast  Level FlightAware Approximate
02:26PM 24.4964 -92.5317 157° South  Level FlightAware Approximate
02:27PM 24.4037 -92.4895 157° South  Level FlightAware Approximate
02:28PM 24.3109 -92.4473 158° South  Level FlightAware Approximate
02:29PM 24.2182 -92.4053 158° South  Level FlightAware Approximate
02:30PM 24.1255 -92.3633 158° South  Level FlightAware Approximate
02:31PM 24.0328 -92.3213 158° South  Level FlightAware Approximate
02:32PM 23.9400 -92.2794 158° South  Level FlightAware Approximate
02:33PM 23.8472 -92.2376 158° South  Level FlightAware Approximate
02:34PM 23.7545 -92.1958 158° South  Level FlightAware Approximate
02:35PM 23.6617 -92.1541 158° South  Level FlightAware Approximate
02:36PM 23.5689 -92.1124 158° South  Level FlightAware Approximate
02:37PM 23.4761 -92.0709 158° South  Level FlightAware Approximate
02:38PM 23.3832 -92.0293 158° South  Level FlightAware Approximate
02:39PM 23.2904 -91.9878 158° South  Level FlightAware Approximate
02:40PM 23.1976 -91.9464 158° South  Level FlightAware Approximate
02:41PM 23.1047 -91.9051 158° South  Level FlightAware Approximate
02:42PM 23.0118 -91.8638 158° South  Level FlightAware Approximate
02:43PM 22.9190 -91.8225 158° South  Level FlightAware Approximate
02:44PM 22.8261 -91.7813 158° South  Level FlightAware Approximate
02:45PM 22.7332 -91.7402 158° South  Level FlightAware Approximate
02:46PM 22.6403 -91.6991 158° South  Level FlightAware Approximate
02:47PM 22.5474 -91.6581 158° South  Level FlightAware Approximate
02:48PM 22.4544 -91.6171 158° South  Level FlightAware Approximate
02:49PM 22.3615 -91.5762 158° South  Level FlightAware Approximate
02:50PM 22.2685 -91.5354 158° South  Level FlightAware Approximate
02:51PM 22.1756 -91.4946 158° South  Level FlightAware Approximate
02:52PM 22.0827 -91.4536 158° South  Level FlightAware Approximate
02:53PM 21.9898 -91.4127 158° South  Level FlightAware Approximate
02:54PM 21.8969 -91.3718 158° South  Level FlightAware Approximate
02:55PM 21.8040 -91.3310 158° South  Level FlightAware Approximate
02:56PM 21.7110 -91.2905 158° South  Level FlightAware Approximate
02:57PM 21.6176 -91.2509 158° South  Level FlightAware Approximate
02:58PM 21.5242 -91.2114 159° South  Level FlightAware Approximate
02:59PM 21.4309 -91.1719 159° South  Level FlightAware Approximate
03:00PM 21.3375 -91.1325 159° South  Level FlightAware Approximate
03:01PM 21.2441 -91.0932 159° South  Level FlightAware Approximate
03:02PM 21.1506 -91.0540 159° South  Level FlightAware Approximate
03:03PM 21.0572 -91.0148 159° South  Level FlightAware Approximate
03:04PM 20.9637 -90.9757 159° South  Level FlightAware Approximate
03:05PM 20.8702 -90.9367 159° South  Level FlightAware Approximate
03:06PM 20.7767 -90.8977 159° South  Level FlightAware Approximate
03:07PM 20.6832 -90.8587 159° South  Level FlightAware Approximate
03:08PM 20.5897 -90.8198 159° South  Level FlightAware Approximate
03:09PM 20.4962 -90.7809 159° South  Level FlightAware Approximate
03:10PM 20.4027 -90.7421 159° South  Level FlightAware Approximate
03:11PM 20.3092 -90.7033 159° South  Level FlightAware Approximate
03:12PM 20.2157 -90.6646 159° South  Level FlightAware Approximate
03:13PM 20.1221 -90.6259 159° South  Level FlightAware Approximate
03:14PM 20.0286 -90.5873 159° South  Level FlightAware Approximate
03:15PM 19.9350 -90.5487 159° South  Level FlightAware Approximate
03:16PM 19.8414 -90.5102 159° South  Level FlightAware Approximate
03:17PM 19.7442 -90.4854 169° South  Level FlightAware Approximate
03:18PM 19.6456 -90.4656 169° South  Level FlightAware Approximate
03:19PM 19.5470 -90.4458 169° South  Level FlightAware Approximate
03:20PM 19.4484 -90.4260 169° South  Level FlightAware Approximate
03:21PM 19.3498 -90.4063 169° South  Level FlightAware Approximate
03:22PM 19.2512 -90.3866 169° South  Level FlightAware Approximate
03:23PM 19.1526 -90.3669 169° South  Level FlightAware Approximate
03:24PM 19.0540 -90.3472 169° South  Level FlightAware Approximate
03:25PM 18.9554 -90.3276 169° South  Level FlightAware Approximate
03:26PM 18.8568 -90.3080 169° South  Level FlightAware Approximate
03:27PM 18.7582 -90.2884 169° South  Level FlightAware Approximate
03:28PM 18.6595 -90.2689 169° South  Level FlightAware Approximate
03:29PM 18.5609 -90.2495 169° South  Level FlightAware Approximate
03:30PM 18.4623 -90.2300 169° South  Level FlightAware Approximate
03:31PM 18.3636 -90.2106 169° South  Level FlightAware Approximate
03:32PM 18.2650 -90.1912 169° South  Level FlightAware Approximate
03:33PM 18.1664 -90.1718 169° South  Level FlightAware Approximate
03:34PM 18.0677 -90.1524 169° South  Level FlightAware Approximate
03:35PM 17.9691 -90.1331 169° South  Level FlightAware Approximate
03:36PM 17.8704 -90.1138 169° South  Level FlightAware Approximate
03:37PM 17.7713 -90.1000 180° South  Level FlightAware Approximate
03:38PM 17.6715 -90.1084 187° South  Level FlightAware Approximate
03:39PM 17.5720 -90.1219 187° South  Level FlightAware Approximate
03:40PM 17.4725 -90.1353 187° South  Level FlightAware Approximate
03:41PM 17.3729 -90.1488 187° South  Level FlightAware Approximate
03:42PM 17.2734 -90.1622 187° South  Level FlightAware Approximate
03:43PM 17.1739 -90.1756 187° South  Level FlightAware Approximate
03:44PM 17.0740 -90.1833 180° South  Level FlightAware Approximate
03:45PM 16.9742 -90.1928 187° South  Level FlightAware Approximate
03:46PM 16.8746 -90.2053 187° South  Level FlightAware Approximate
03:47PM 16.7750 -90.2177 187° South  Level FlightAware Approximate
03:48PM 16.6753 -90.2302 187° South  Level FlightAware Approximate
03:49PM 16.5760 -90.2450 189° South  Level FlightAware Approximate
03:50PM 16.4768 -90.2607 189° South  Level FlightAware Approximate
03:51PM 16.3776 -90.2764 189° South  Level FlightAware Approximate
03:52PM 16.2778 -90.2841 187° South  Level FlightAware Approximate
03:53PM 16.1783 -90.2973 187° South  Level FlightAware Approximate
03:54PM 16.0788 -90.3106 187° South  Level FlightAware Approximate
03:55PM 15.9792 -90.3239 187° South  Level FlightAware Approximate
03:56PM 15.8797 -90.3372 187° South  Level FlightAware Approximate
03:57PM 15.7802 -90.3505 189° South  Level FlightAware Approximate
03:58PM 15.6811 -90.3670 189° South  Level FlightAware Approximate
03:59PM 15.5820 -90.3835 188° South  Level FlightAware Approximate
04:00PM 15.4826 -90.3977 188° South  Level FlightAware Approximate
04:01PM 15.3832 -90.4119 188° South  Level FlightAware Approximate
04:02PM 15.2835 -90.4233 186° South  Level FlightAware Approximate
04:03PM 15.1836 -90.4333 186° South  Level FlightAware Approximate
04:04PM 15.0848 -90.4513 190° South  Level FlightAware Approximate
04:05PM 14.9858 -90.4667 180° South  Level FlightAware Approximate
04:06PM 14.8858 -90.4748 186° South  Level FlightAware Approximate
04:07PM 14.7873 -90.4897 206° Southwest  Level FlightAware Approximate
04:08PM 14.6897 -90.5054 191° South  Level FlightAware Approximate
04:09PM 14.5904 -90.5167 180° South  Level FlightAware Approximate
04:10PM 14.5833 -90.5275 180° South  Level Estimated
04:11PM 14.5833 -90.5275 180° South  Level Estimated
04:12PM 14.5833 -90.5275 180° South  Level Estimated
04:13PM 14.5833 -90.5275 180° South  Level Estimated
04:14PM 14.5833 -90.5275 180° South  Level Estimated
04:15PM 14.5833 -90.5275 180° South  Level Estimated
04:16PM 14.5833 -90.5275 180° South  Level Estimated
04:17PM 14.5833 -90.5275 180° South  Level Estimated
04:18PM 14.5833 -90.5275 180° South  Level Estimated
04:19PM 14.5833 -90.5275 180° South  Level Estimated
04:20PM 14.5833 -90.5275 180° South  Level Estimated
04:21PM 14.5833 -90.5275 180° South  Level Estimated
04:22PM 14.5833 -90.5275 180° South  Level Estimated
04:23PM 14.5833 -90.5275 180° South  Level Estimated
04:24PM 14.5833 -90.5275 180° South  Level Estimated
04:25PM 14.5833 -90.5275 180° South  Level Estimated